createdAt,value
2023-03-18T00:02:11.783Z,100480.63
2023-03-18T00:04:44.208Z,100477.10
2023-03-18T00:07:16.710Z,100478.20
2023-03-18T00:09:49.048Z,100475.17
2023-03-18T00:12:21.912Z,100476.23
2023-03-18T00:14:54.556Z,100476.74
2023-03-18T00:17:26.927Z,100477.61
2023-03-18T00:20:05.847Z,100475.28
2023-03-18T00:22:39.149Z,100479.28
2023-03-18T00:25:14.609Z,100476.24
2023-03-18T00:27:46.876Z,100473.90
2023-03-18T00:30:19.764Z,100473.15
2023-03-18T00:32:52.384Z,100476.70
2023-03-18T00:35:24.982Z,100481.51
2023-03-18T00:37:58.650Z,100473.32
2023-03-18T00:40:43.356Z,100474.17
2023-03-18T00:43:15.907Z,100469.05
2023-03-18T00:45:48.888Z,100468.56
2023-03-18T00:48:22.562Z,100469.88
2023-03-18T00:50:55.246Z,100473.12
2023-03-18T00:53:27.632Z,100467.37
2023-03-18T00:56:00.518Z,100465.38
2023-03-18T00:58:32.871Z,100462.03
2023-03-18T01:01:05.872Z,100459.98
2023-03-18T01:03:39.486Z,100462.51
2023-03-18T01:06:13.259Z,100455.98
2023-03-18T01:08:46.287Z,100455.02
2023-03-18T01:11:19.579Z,100449.84
2023-03-18T01:13:54.230Z,100444.49
2023-03-18T01:16:27.039Z,100444.48
2023-03-18T01:18:59.971Z,100445.45
2023-03-18T01:21:32.210Z,100440.45
2023-03-18T01:24:06.186Z,100431.10
2023-03-18T01:26:39.060Z,100425.78
2023-03-18T01:29:12.722Z,100424.20
2023-03-18T01:31:45.575Z,100421.88
2023-03-18T01:34:21.734Z,100417.26
2023-03-18T01:36:57.674Z,100419.65
2023-03-18T01:39:31.336Z,100418.61
2023-03-18T01:42:05.310Z,100409.52
2023-03-18T01:44:38.551Z,100410.25
2023-03-18T01:47:11.965Z,100409.39
2023-03-18T01:49:48.883Z,100409.27
2023-03-18T01:52:24.507Z,100414.98
2023-03-18T01:55:01.102Z,100412.79
2023-03-18T01:57:35.909Z,100415.17
2023-03-18T02:00:11.104Z,100411.70
2023-03-18T02:02:53.030Z,100410.21
2023-03-18T02:05:29.756Z,100409.23
2023-03-18T02:08:04.854Z,100404.09
2023-03-18T02:10:38.627Z,100404.11
2023-03-18T02:13:14.444Z,100397.65
2023-03-18T02:15:53.464Z,100400.41
2023-03-18T02:18:30.069Z,100395.63
2023-03-18T02:21:16.019Z,100401.54
2023-03-18T02:23:57.910Z,100402.43
2023-03-18T02:26:37.381Z,100401.67
2023-03-18T02:29:13.418Z,100401.10
2023-03-18T02:31:52.229Z,100402.31
2023-03-18T02:34:29.710Z,100401.66
2023-03-18T02:37:03.089Z,100402.29
2023-03-18T02:39:35.820Z,100405.70
2023-03-18T02:42:08.806Z,100404.81
2023-03-18T02:44:44.794Z,100405.48
2023-03-18T02:47:53.864Z,100409.92
2023-03-18T02:50:26.368Z,100418.11
2023-03-18T02:53:00.020Z,100413.30
2023-03-18T02:55:32.544Z,100409.52
2023-03-18T02:58:04.864Z,100411.75
2023-03-18T03:00:38.573Z,100410.66
2023-03-18T03:03:11.233Z,100409.20
2023-03-18T03:05:43.733Z,100409.59
2023-03-18T03:08:16.634Z,100410.27
2023-03-18T03:10:52.555Z,100408.92
2023-03-18T03:13:25.760Z,100412.75
2023-03-18T03:15:58.862Z,100407.94
2023-03-18T03:18:32.676Z,100414.96
2023-03-18T03:21:05.220Z,100419.16
2023-03-18T03:23:38.343Z,100420.36
2023-03-18T03:26:11.837Z,100418.54
2023-03-18T03:28:44.469Z,100419.91
2023-03-18T03:31:17.505Z,100417.47
2023-03-18T03:33:50.088Z,100415.73
2023-03-18T03:36:22.375Z,100412.30
2023-03-18T03:38:55.621Z,100407.69
2023-03-18T03:41:28.374Z,100404.04
2023-03-18T03:44:00.615Z,100405.47
2023-03-18T03:46:32.922Z,100404.75
2023-03-18T03:49:05.627Z,100407.57
2023-03-18T03:51:37.999Z,100409.60
2023-03-18T03:54:11.791Z,100406.73
2023-03-18T03:56:44.438Z,100404.46
2023-03-18T03:59:16.870Z,100408.34
2023-03-18T04:02:07.879Z,100410.79
2023-03-18T04:04:40.164Z,100413.53
2023-03-18T04:07:14.470Z,100408.77
2023-03-18T04:09:47.394Z,100402.79
2023-03-18T04:12:19.910Z,100406.89
2023-03-18T04:14:57.096Z,100404.73
2023-03-18T04:17:29.471Z,100404.76
2023-03-18T04:20:01.771Z,100415.44
2023-03-18T04:22:36.320Z,100414.77
2023-03-18T04:25:12.182Z,100417.58
2023-03-18T04:27:45.149Z,100419.88
2023-03-18T04:30:20.368Z,100422.14
2023-03-18T04:33:02.071Z,100423.00
2023-03-18T04:35:35.513Z,100422.62
2023-03-18T04:38:08.752Z,100419.63
2023-03-18T04:40:41.232Z,100416.89
2023-03-18T04:43:13.631Z,100414.14
2023-03-18T04:45:45.854Z,100414.66
2023-03-18T04:48:18.335Z,100418.39
2023-03-18T04:50:50.839Z,100414.87
2023-03-18T04:53:27.658Z,100405.98
2023-03-18T04:56:00.374Z,100403.91
2023-03-18T04:58:38.853Z,100405.48
2023-03-18T05:01:16.975Z,100402.30
2023-03-18T05:03:49.470Z,100400.92
2023-03-18T05:06:27.006Z,100400.45
2023-03-18T05:09:01.762Z,100401.52
2023-03-18T05:11:38.253Z,100399.27
2023-03-18T05:14:33.042Z,100390.55
2023-03-18T05:17:05.747Z,100392.91
2023-03-18T05:19:40.073Z,100392.60
2023-03-18T05:22:22.954Z,100388.75
2023-03-18T05:24:59.290Z,100386.96
2023-03-18T05:27:32.428Z,100386.96
2023-03-18T05:30:11.117Z,100393.44
2023-03-18T05:32:50.020Z,100393.52
2023-03-18T05:35:23.197Z,100391.55
2023-03-18T05:37:55.945Z,100398.77
2023-03-18T05:40:28.978Z,100402.29
2023-03-18T05:43:21.925Z,100399.80
2023-03-18T05:45:57.493Z,100401.52
2023-03-18T05:48:40.110Z,100396.12
2023-03-18T05:51:12.766Z,100393.80
2023-03-18T05:53:45.504Z,100399.18
2023-03-18T05:56:25.828Z,100396.80
2023-03-18T05:59:01.803Z,100393.88
2023-03-18T06:01:56.488Z,100399.79
2023-03-18T06:04:28.836Z,100395.01
2023-03-18T06:07:01.399Z,100406.82
2023-03-18T06:09:34.454Z,100416.31
2023-03-18T06:12:08.504Z,100409.96
2023-03-18T06:14:40.854Z,100407.36
2023-03-18T06:17:14.155Z,100409.92
2023-03-18T06:19:47.000Z,100412.02
2023-03-18T06:22:19.419Z,100407.72
2023-03-18T06:24:51.711Z,100406.87
2023-03-18T06:27:24.709Z,100403.73
2023-03-18T06:30:03.061Z,100403.92
2023-03-18T06:32:35.920Z,100407.31
2023-03-18T06:35:11.821Z,100398.73
2023-03-18T06:37:44.405Z,100397.21
2023-03-18T06:40:17.631Z,100398.38
2023-03-18T06:42:50.364Z,100396.44
2023-03-18T06:45:31.965Z,100395.80
2023-03-18T06:48:10.445Z,100396.70
2023-03-18T06:50:45.799Z,100397.39
2023-03-18T06:53:27.592Z,100394.50
2023-03-18T06:56:00.306Z,100389.61
2023-03-18T06:58:37.922Z,100387.13
2023-03-18T07:01:12.586Z,100389.61
2023-03-18T07:03:47.008Z,100389.13
2023-03-18T07:06:19.969Z,100391.79
2023-03-18T07:08:53.175Z,100394.60
2023-03-18T07:11:25.662Z,100389.46
2023-03-18T07:13:58.756Z,100386.86
2023-03-18T07:16:34.180Z,100385.59
2023-03-18T07:19:06.475Z,100392.06
2023-03-18T07:21:40.137Z,100394.83
2023-03-18T07:24:12.674Z,100396.95
2023-03-18T07:26:46.463Z,100399.73
2023-03-18T07:29:19.013Z,100396.56
2023-03-18T07:31:51.479Z,100394.80
2023-03-18T07:34:24.308Z,100391.95
2023-03-18T07:36:56.728Z,100391.20
2023-03-18T07:39:29.127Z,100390.56
2023-03-18T07:42:02.217Z,100386.90
2023-03-18T07:44:36.167Z,100386.77
2023-03-18T07:47:08.994Z,100386.63
2023-03-18T07:49:41.754Z,100380.70
2023-03-18T07:52:14.032Z,100379.73
2023-03-18T07:54:46.458Z,100374.63
2023-03-18T07:57:19.088Z,100375.95
2023-03-18T07:59:52.021Z,100372.13
2023-03-18T08:02:25.539Z,100373.60
2023-03-18T08:04:57.946Z,100373.63
2023-03-18T08:07:30.844Z,100373.29
2023-03-18T08:10:03.428Z,100370.23
2023-03-18T08:12:51.598Z,100365.25
2023-03-18T08:15:26.156Z,100361.15
2023-03-18T08:17:58.539Z,100363.98
2023-03-18T08:20:30.764Z,100363.88
2023-03-18T08:23:03.634Z,100364.69
2023-03-18T08:25:35.969Z,100361.02
2023-03-18T08:28:08.767Z,100366.17
2023-03-18T08:30:41.462Z,100362.36
2023-03-18T08:33:13.834Z,100368.84
2023-03-18T08:35:46.496Z,100367.95
2023-03-18T08:38:19.398Z,100364.44
2023-03-18T08:40:52.116Z,100370.75
2023-03-18T08:43:24.418Z,100367.59
2023-03-18T08:45:57.816Z,100369.66
2023-03-18T08:48:30.837Z,100370.09
2023-03-18T08:51:04.065Z,100369.23
2023-03-18T08:53:36.912Z,100367.88
2023-03-18T08:56:10.075Z,100362.54
2023-03-18T08:58:43.894Z,100362.81
2023-03-18T09:01:16.816Z,100361.71
2023-03-18T09:03:49.165Z,100359.64
2023-03-18T09:06:21.489Z,100362.25
2023-03-18T09:08:54.242Z,100360.20
2023-03-18T09:11:27.007Z,100362.03
2023-03-18T09:13:59.324Z,100361.70
2023-03-18T09:16:31.692Z,100356.89
2023-03-18T09:19:05.045Z,100362.07
2023-03-18T09:21:37.718Z,100362.92
2023-03-18T09:24:10.651Z,100364.98
2023-03-18T09:26:43.882Z,100365.57
2023-03-18T09:29:16.593Z,100362.93
2023-03-18T09:31:49.279Z,100361.45
2023-03-18T09:34:21.637Z,100361.78
2023-03-18T09:36:54.146Z,100365.25
2023-03-18T09:39:27.350Z,100364.70
2023-03-18T09:42:18.094Z,100366.59
2023-03-18T09:44:56.712Z,100364.46
2023-03-18T09:47:56.360Z,100357.77
2023-03-18T09:50:41.759Z,100350.92
2023-03-18T09:53:18.161Z,100354.88
2023-03-18T09:55:53.967Z,100358.69
2023-03-18T09:58:35.174Z,100351.36
2023-03-18T10:01:10.851Z,100347.02
2023-03-18T10:03:47.857Z,100352.56
2023-03-18T10:06:21.975Z,100339.02
2023-03-18T10:09:02.810Z,100341.54
2023-03-18T10:11:39.063Z,100343.85
2023-03-18T10:14:32.004Z,100342.80
2023-03-18T10:17:14.543Z,100346.06
2023-03-18T10:19:51.950Z,100346.64
2023-03-18T10:22:45.074Z,100349.76
2023-03-18T10:25:26.594Z,100341.38
2023-03-18T10:28:23.455Z,100341.28
2023-03-18T10:31:07.284Z,100336.97
2023-03-18T10:33:49.296Z,100332.96
2023-03-18T10:36:29.525Z,100326.58
2023-03-18T10:39:04.057Z,100320.05
2023-03-18T10:41:37.960Z,100313.86
2023-03-18T10:44:19.253Z,100312.98
2023-03-18T10:47:00.582Z,100303.54
2023-03-18T10:49:37.106Z,100297.15
2023-03-18T10:52:21.429Z,100291.81
2023-03-18T10:54:54.318Z,100293.85
2023-03-18T10:57:27.207Z,100292.16
2023-03-18T10:59:59.853Z,100294.72
2023-03-18T11:02:38.888Z,100289.69
2023-03-18T11:05:23.465Z,100287.39
2023-03-18T11:08:01.444Z,100279.05
2023-03-18T11:10:39.774Z,100281.88
2023-03-18T11:13:17.818Z,100275.48
2023-03-18T11:15:52.785Z,100278.98
2023-03-18T11:18:24.694Z,100270.98
2023-03-18T11:21:01.418Z,100270.10
2023-03-18T11:23:46.679Z,100259.52
2023-03-18T11:26:24.338Z,100261.10
2023-03-18T11:29:00.405Z,100251.25
2023-03-18T11:31:32.871Z,100248.58
2023-03-18T11:34:11.067Z,100251.64
2023-03-18T11:36:43.501Z,100254.49
2023-03-18T11:39:17.243Z,100254.88
2023-03-18T11:41:50.474Z,100257.45
2023-03-18T11:44:29.824Z,100254.21
2023-03-18T11:47:08.748Z,100247.88
2023-03-18T11:49:43.070Z,100241.58
2023-03-18T11:52:30.089Z,100235.67
2023-03-18T11:55:12.994Z,100229.16
2023-03-18T11:58:20.817Z,100231.83
2023-03-18T12:01:01.481Z,100223.35
2023-03-18T12:03:55.056Z,100223.41
2023-03-18T12:06:29.396Z,100218.17
2023-03-18T12:09:16.346Z,100214.27
2023-03-18T12:12:06.970Z,100213.35
2023-03-18T12:14:45.932Z,100205.33
2023-03-18T12:17:35.786Z,100210.98
2023-03-18T12:20:31.530Z,100210.34
2023-03-18T12:23:22.154Z,100215.59
2023-03-18T12:26:03.328Z,100214.33
2023-03-18T12:28:49.140Z,100220.35
2023-03-18T12:31:40.855Z,100215.79
2023-03-18T12:34:24.965Z,100214.94
2023-03-18T12:37:13.215Z,100217.46
2023-03-18T12:40:00.641Z,100221.86
2023-03-18T12:42:44.835Z,100231.17
2023-03-18T12:45:20.728Z,100236.14
2023-03-18T12:47:56.336Z,100235.83
2023-03-18T12:50:33.600Z,100239.45
2023-03-18T12:53:11.248Z,100238.34
2023-03-18T12:55:48.059Z,100232.20
2023-03-18T12:58:24.482Z,100233.06
2023-03-18T13:01:06.996Z,100226.58
2023-03-18T13:03:42.016Z,100228.78
2023-03-18T13:06:17.424Z,100231.77
2023-03-18T13:09:10.032Z,100225.69
2023-03-18T13:11:56.954Z,100218.27
2023-03-18T13:14:39.436Z,100214.99
2023-03-18T13:17:14.776Z,100215.44
2023-03-18T13:19:47.675Z,100215.58
2023-03-18T13:22:38.348Z,100225.02
2023-03-18T13:25:20.216Z,100217.90
2023-03-18T13:28:16.357Z,100216.94
2023-03-18T13:31:00.800Z,100212.70
2023-03-18T13:34:12.180Z,100214.09
2023-03-18T13:37:11.022Z,100213.66
2023-03-18T13:40:00.672Z,100212.80
2023-03-18T13:42:36.159Z,100213.08
2023-03-18T13:45:19.947Z,100213.86
2023-03-18T13:47:59.461Z,100214.08
2023-03-18T13:50:39.817Z,100212.00
2023-03-18T13:53:23.509Z,100214.16
2023-03-18T13:56:07.088Z,100211.81
2023-03-18T13:58:48.103Z,100211.35
2023-03-18T14:01:36.392Z,100203.91
2023-03-18T14:04:33.622Z,100207.04
2023-03-18T14:07:19.667Z,100205.44
2023-03-18T14:10:18.778Z,100205.50
2023-03-18T14:12:52.428Z,100198.69
2023-03-18T14:15:45.626Z,100199.95
2023-03-18T14:18:27.873Z,100192.17
2023-03-18T14:21:08.282Z,100187.70
2023-03-18T14:23:46.515Z,100181.70
2023-03-18T14:26:27.629Z,100183.97
2023-03-18T14:29:23.628Z,100183.33
2023-03-18T14:32:01.134Z,100184.06
2023-03-18T14:34:35.179Z,100183.63
2023-03-18T14:37:29.515Z,100187.75
2023-03-18T14:40:13.934Z,100179.48
2023-03-18T14:42:58.455Z,100178.73
2023-03-18T14:45:35.054Z,100180.86
2023-03-18T14:48:18.593Z,100188.59
2023-03-18T14:50:58.073Z,100182.17
2023-03-18T14:53:34.690Z,100183.05
2023-03-18T14:56:17.948Z,100188.73
2023-03-18T14:58:53.539Z,100184.50
2023-03-18T15:01:33.044Z,100190.50
2023-03-18T15:04:07.120Z,100187.00
2023-03-18T15:06:43.069Z,100189.40
2023-03-18T15:09:20.960Z,100187.39
2023-03-18T15:11:53.972Z,100185.46
2023-03-18T15:14:30.298Z,100185.68
2023-03-18T15:17:06.548Z,100183.90
2023-03-18T15:19:38.851Z,100188.36
2023-03-18T15:22:21.167Z,100184.34
2023-03-18T15:25:03.383Z,100183.95
2023-03-18T15:27:39.080Z,100188.59
2023-03-18T15:30:27.794Z,100188.27
2023-03-18T15:33:08.279Z,100191.30
2023-03-18T15:35:40.573Z,100188.02
2023-03-18T15:38:19.509Z,100192.48
2023-03-18T15:40:56.627Z,100187.58
2023-03-18T15:43:40.282Z,100186.09
2023-03-18T15:46:20.462Z,100184.41
2023-03-18T15:48:56.004Z,100187.05
2023-03-18T15:51:31.319Z,100187.21
2023-03-18T15:54:09.498Z,100185.41
2023-03-18T15:56:48.765Z,100187.08
2023-03-18T15:59:25.955Z,100189.23
2023-03-18T16:01:59.502Z,100193.42
2023-03-18T16:04:36.368Z,100195.34
2023-03-18T16:07:18.922Z,100196.09
2023-03-18T16:09:51.798Z,100198.60
2023-03-18T16:12:27.759Z,100198.14
2023-03-18T16:15:03.353Z,100198.02
2023-03-18T16:17:35.813Z,100198.60
2023-03-18T16:20:18.148Z,100195.98
2023-03-18T16:22:51.037Z,100198.23
2023-03-18T16:25:24.159Z,100200.64
2023-03-18T16:28:00.143Z,100203.26
2023-03-18T16:30:34.158Z,100202.80
2023-03-18T16:33:13.123Z,100207.07
2023-03-18T16:35:46.834Z,100211.85
2023-03-18T16:38:20.490Z,100208.71
2023-03-18T16:40:54.862Z,100206.27
2023-03-18T16:43:29.547Z,100207.88
2023-03-18T16:46:04.356Z,100204.35
2023-03-18T16:48:35.313Z,100203.02
2023-03-18T16:51:07.967Z,100203.64
2023-03-18T16:53:40.402Z,100199.95
2023-03-18T16:56:20.811Z,100201.86
2023-03-18T16:58:53.217Z,100200.27
2023-03-18T17:01:28.157Z,100204.48
2023-03-18T17:03:59.310Z,100211.25
2023-03-18T17:06:31.911Z,100211.66
2023-03-18T17:09:04.893Z,100210.19
2023-03-18T17:11:37.393Z,100213.24
2023-03-18T17:14:20.978Z,100212.44
2023-03-18T17:16:53.312Z,100212.63
2023-03-18T17:19:26.564Z,100213.75
2023-03-18T17:21:59.159Z,100215.67
2023-03-18T17:24:31.496Z,100217.99
2023-03-18T17:27:04.440Z,100223.00
2023-03-18T17:29:36.901Z,100224.94
2023-03-18T17:32:11.679Z,100225.42
2023-03-18T17:34:44.352Z,100224.45
2023-03-18T17:37:16.744Z,100228.80
2023-03-18T17:39:49.770Z,100226.11
2023-03-18T17:42:31.029Z,100230.58
2023-03-18T17:45:08.529Z,100227.77
2023-03-18T17:47:40.882Z,100226.16
2023-03-18T17:50:17.350Z,100226.38
2023-03-18T17:52:52.823Z,100227.63
2023-03-18T17:55:27.366Z,100226.31
2023-03-18T17:57:59.925Z,100229.10
2023-03-18T18:00:32.961Z,100230.08
2023-03-18T18:03:07.413Z,100226.58
2023-03-18T18:05:39.778Z,100222.83
2023-03-18T18:08:17.821Z,100223.67
2023-03-18T18:10:51.028Z,100218.93
2023-03-18T18:13:24.461Z,100221.56
2023-03-18T18:15:56.918Z,100222.38
2023-03-18T18:18:31.493Z,100225.23
2023-03-18T18:21:06.832Z,100222.48
2023-03-18T18:23:40.282Z,100221.06
2023-03-18T18:26:15.978Z,100215.75
2023-03-18T18:28:50.383Z,100216.34
2023-03-18T18:31:25.624Z,100220.70
2023-03-18T18:33:58.692Z,100216.36
2023-03-18T18:36:32.559Z,100213.73
2023-03-18T18:39:05.576Z,100211.25
2023-03-18T18:41:39.555Z,100207.79
2023-03-18T18:44:12.770Z,100210.38
2023-03-18T18:46:45.282Z,100212.16
2023-03-18T18:49:22.967Z,100207.65
2023-03-18T18:51:57.200Z,100208.48
2023-03-18T18:54:29.784Z,100209.31
2023-03-18T18:57:03.176Z,100209.24
2023-03-18T18:59:36.371Z,100210.09
2023-03-18T19:02:31.035Z,100211.30
2023-03-18T19:05:13.245Z,100212.92
2023-03-18T19:07:46.635Z,100215.16
2023-03-18T19:10:19.970Z,100214.05
2023-03-18T19:12:52.675Z,100210.14
2023-03-18T19:15:25.250Z,100215.22
2023-03-18T19:17:58.319Z,100211.55
2023-03-18T19:20:32.356Z,100209.89
2023-03-18T19:23:06.511Z,100211.88
2023-03-18T19:25:38.855Z,100213.03
2023-03-18T19:28:14.438Z,100216.03
2023-03-18T19:30:46.788Z,100209.69
2023-03-18T19:33:19.905Z,100212.92
2023-03-18T19:35:52.538Z,100214.30
2023-03-18T19:38:24.874Z,100218.05
2023-03-18T19:40:57.720Z,100218.27
2023-03-18T19:43:31.116Z,100220.27
2023-03-18T19:46:03.525Z,100222.52
2023-03-18T19:48:36.001Z,100221.13
2023-03-18T19:51:09.521Z,100224.19
2023-03-18T19:53:41.901Z,100221.90
2023-03-18T19:56:25.769Z,100222.95
2023-03-18T19:59:00.221Z,100221.92
2023-03-18T20:01:32.750Z,100222.75
2023-03-18T20:04:07.930Z,100225.00
2023-03-18T20:06:40.214Z,100222.48
2023-03-18T20:09:12.954Z,100222.83
2023-03-18T20:11:46.026Z,100221.70
2023-03-18T20:14:27.305Z,100221.20
2023-03-18T20:17:03.231Z,100224.23
2023-03-18T20:19:35.619Z,100221.48
2023-03-18T20:22:10.437Z,100217.95
2023-03-18T20:24:42.885Z,100218.09
2023-03-18T20:27:16.029Z,100215.65
2023-03-18T20:29:49.723Z,100217.21
2023-03-18T20:32:22.556Z,100217.58
2023-03-18T20:34:54.814Z,100219.73
2023-03-18T20:37:33.924Z,100226.11
2023-03-18T20:40:15.671Z,100224.67
2023-03-18T20:42:48.293Z,100225.79
2023-03-18T20:45:22.249Z,100227.64
2023-03-18T20:47:54.794Z,100231.17
2023-03-18T20:50:30.917Z,100231.29
2023-03-18T20:53:04.566Z,100228.93
2023-03-18T20:55:37.303Z,100227.05
2023-03-18T20:58:15.163Z,100227.47
2023-03-18T21:00:48.235Z,100225.59
2023-03-18T21:03:29.512Z,100223.27
2023-03-18T21:06:04.036Z,100222.91
2023-03-18T21:08:37.256Z,100226.22
2023-03-18T21:11:21.167Z,100222.05
2023-03-18T21:13:53.766Z,100222.48
2023-03-18T21:16:26.515Z,100226.49
2023-03-18T21:18:59.632Z,100224.11
2023-03-18T21:21:36.053Z,100222.97
2023-03-18T21:24:26.064Z,100227.24
2023-03-18T21:27:04.760Z,100221.65
2023-03-18T21:29:37.769Z,100225.44
2023-03-18T21:32:19.255Z,100225.00
2023-03-18T21:34:52.747Z,100222.83
2023-03-18T21:37:27.320Z,100223.60
2023-03-18T21:39:59.806Z,100221.20
2023-03-18T21:42:34.151Z,100219.80
2023-03-18T21:45:11.379Z,100221.05
2023-03-18T21:47:44.250Z,100218.54
2023-03-18T21:50:24.521Z,100216.66
2023-03-18T21:52:59.207Z,100216.90
2023-03-18T21:55:31.979Z,100215.76
2023-03-18T21:58:04.803Z,100217.77
2023-03-18T22:00:37.110Z,100219.02
2023-03-18T22:03:15.827Z,100217.25
2023-03-18T22:05:50.209Z,100217.95
2023-03-18T22:08:23.422Z,100211.46
2023-03-18T22:10:56.932Z,100208.51
2023-03-18T22:13:29.870Z,100210.36
2023-03-18T22:16:02.323Z,100209.16
2023-03-18T22:18:34.644Z,100206.67
2023-03-18T22:21:13.184Z,100204.29
2023-03-18T22:23:45.863Z,100203.18
2023-03-18T22:26:20.119Z,100200.02
2023-03-18T22:28:52.846Z,100200.29
2023-03-18T22:31:27.414Z,100200.03
2023-03-18T22:34:02.214Z,100197.95
2023-03-18T22:36:34.506Z,100200.10
2023-03-18T22:39:06.847Z,100197.38
2023-03-18T22:41:40.335Z,100198.95
2023-03-18T22:44:23.870Z,100202.42
2023-03-18T22:46:56.511Z,100201.91
2023-03-18T22:49:28.910Z,100201.78
2023-03-18T22:52:01.284Z,100197.52
2023-03-18T22:54:33.983Z,100199.33
2023-03-18T22:57:09.065Z,100196.55
2023-03-18T22:59:39.866Z,100196.23
2023-03-18T23:02:18.646Z,100198.52
2023-03-18T23:04:53.182Z,100197.41
2023-03-18T23:07:31.319Z,100195.21
2023-03-18T23:10:05.593Z,100192.61
2023-03-18T23:12:37.909Z,100197.08
2023-03-18T23:15:18.192Z,100192.78
2023-03-18T23:17:50.654Z,100189.65
2023-03-18T23:20:23.005Z,100191.17
2023-03-18T23:22:55.264Z,100187.77
2023-03-18T23:25:27.813Z,100186.00
2023-03-18T23:28:00.153Z,100190.33
2023-03-18T23:30:33.003Z,100186.60
2023-03-18T23:33:05.613Z,100187.34
2023-03-18T23:35:38.599Z,100187.58
2023-03-18T23:38:11.106Z,100188.04
2023-03-18T23:40:43.494Z,100187.88
2023-03-18T23:43:16.248Z,100186.50
2023-03-18T23:45:48.660Z,100182.77
2023-03-18T23:48:21.116Z,100183.75
2023-03-18T23:50:53.876Z,100183.14
2023-03-18T23:53:26.283Z,100176.02
2023-03-18T23:55:58.618Z,100181.20
2023-03-18T23:58:31.011Z,100182.38
